sensor_id;sensor_type;location;lat;lon;timestamp;temperature;humidity
16728;DHT22;8482;54.396;18.590;2023-09-30T00:01:00;20.50;99.90
16728;DHT22;8482;54.396;18.590;2023-09-30T00:03:26;20.50;99.90
16728;DHT22;8482;54.396;18.590;2023-09-30T00:05:52;20.50;99.90
16728;DHT22;8482;54.396;18.590;2023-09-30T00:08:17;20.50;99.90
16728;DHT22;8482;54.396;18.590;2023-09-30T00:10:43;20.50;99.90
16728;DHT22;8482;54.396;18.590;2023-09-30T00:13:09;20.50;99.90
16728;DHT22;8482;54.396;18.590;2023-09-30T00:15:35;20.50;99.90
16728;DHT22;8482;54.396;18.590;2023-09-30T00:18:01;20.50;99.90
16728;DHT22;8482;54.396;18.590;2023-09-30T00:20:28;20.50;99.90
16728;DHT22;8482;54.396;18.590;2023-09-30T00:22:54;20.50;99.90
16728;DHT22;8482;54.396;18.590;2023-09-30T00:25:20;20.50;99.90
16728;DHT22;8482;54.396;18.590;2023-09-30T00:27:49;20.40;99.90
16728;DHT22;8482;54.396;18.590;2023-09-30T00:30:15;20.50;99.90
16728;DHT22;8482;54.396;18.590;2023-09-30T00:32:41;20.50;99.90
16728;DHT22;8482;54.396;18.590;2023-09-30T00:35:07;20.50;99.90
16728;DHT22;8482;54.396;18.590;2023-09-30T00:37:40;20.50;99.90
16728;DHT22;8482;54.396;18.590;2023-09-30T00:40:07;20.50;99.90
16728;DHT22;8482;54.396;18.590;2023-09-30T00:42:41;20.50;99.90
16728;DHT22;8482;54.396;18.590;2023-09-30T00:45:08;20.50;99.90
16728;DHT22;8482;54.396;18.590;2023-09-30T00:47:36;20.50;99.90
16728;DHT22;8482;54.396;18.590;2023-09-30T00:50:06;20.50;99.90
16728;DHT22;8482;54.396;18.590;2023-09-30T00:52:35;20.50;99.90
16728;DHT22;8482;54.396;18.590;2023-09-30T00:55:02;20.50;99.90
16728;DHT22;8482;54.396;18.590;2023-09-30T00:57:29;20.50;99.90
16728;DHT22;8482;54.396;18.590;2023-09-30T00:59:57;20.50;99.90
16728;DHT22;8482;54.396;18.590;2023-09-30T01:02:24;20.50;99.90
16728;DHT22;8482;54.396;18.590;2023-09-30T01:04:50;20.50;99.90
16728;DHT22;8482;54.396;18.590;2023-09-30T01:07:16;20.50;99.90
16728;DHT22;8482;54.396;18.590;2023-09-30T01:09:42;20.50;99.90
16728;DHT22;8482;54.396;18.590;2023-09-30T01:12:08;20.50;99.90
16728;DHT22;8482;54.396;18.590;2023-09-30T01:14:35;20.50;99.90
16728;DHT22;8482;54.396;18.590;2023-09-30T01:17:04;20.50;99.90
16728;DHT22;8482;54.396;18.590;2023-09-30T01:19:32;20.50;99.90
16728;DHT22;8482;54.396;18.590;2023-09-30T01:21:58;20.50;99.90
16728;DHT22;8482;54.396;18.590;2023-09-30T01:24:28;20.50;99.90
16728;DHT22;8482;54.396;18.590;2023-09-30T01:26:56;20.60;99.90
16728;DHT22;8482;54.396;18.590;2023-09-30T01:29:22;20.50;99.90
16728;DHT22;8482;54.396;18.590;2023-09-30T01:31:51;20.50;99.90
16728;DHT22;8482;54.396;18.590;2023-09-30T01:34:17;20.50;99.90
16728;DHT22;8482;54.396;18.590;2023-09-30T01:36:43;20.50;99.90
16728;DHT22;8482;54.396;18.590;2023-09-30T01:39:10;20.50;99.90
16728;DHT22;8482;54.396;18.590;2023-09-30T01:41:42;20.50;99.90
16728;DHT22;8482;54.396;18.590;2023-09-30T01:44:09;20.50;99.90
16728;DHT22;8482;54.396;18.590;2023-09-30T01:46:35;20.50;99.90
16728;DHT22;8482;54.396;18.590;2023-09-30T01:49:02;20.40;99.90
16728;DHT22;8482;54.396;18.590;2023-09-30T01:51:29;20.40;99.90
16728;DHT22;8482;54.396;18.590;2023-09-30T01:53:55;20.40;99.90
16728;DHT22;8482;54.396;18.590;2023-09-30T01:56:21;20.40;99.90
16728;DHT22;8482;54.396;18.590;2023-09-30T01:58:47;20.40;99.90
16728;DHT22;8482;54.396;18.590;2023-09-30T02:01:13;20.40;99.90
16728;DHT22;8482;54.396;18.590;2023-09-30T02:03:39;20.40;99.90
16728;DHT22;8482;54.396;18.590;2023-09-30T02:06:05;20.30;99.90
16728;DHT22;8482;54.396;18.590;2023-09-30T02:08:31;20.30;99.90
16728;DHT22;8482;54.396;18.590;2023-09-30T02:10:57;20.30;99.90
16728;DHT22;8482;54.396;18.590;2023-09-30T02:13:22;20.40;99.90
16728;DHT22;8482;54.396;18.590;2023-09-30T02:15:48;20.30;99.90
16728;DHT22;8482;54.396;18.590;2023-09-30T02:18:14;20.30;99.90
16728;DHT22;8482;54.396;18.590;2023-09-30T02:20:40;20.30;99.90
16728;DHT22;8482;54.396;18.590;2023-09-30T02:23:10;20.30;99.90
16728;DHT22;8482;54.396;18.590;2023-09-30T02:25:41;20.30;99.90
16728;DHT22;8482;54.396;18.590;2023-09-30T02:28:08;20.20;99.90
16728;DHT22;8482;54.396;18.590;2023-09-30T02:30:36;20.20;99.90
16728;DHT22;8482;54.396;18.590;2023-09-30T02:33:02;20.10;99.90
16728;DHT22;8482;54.396;18.590;2023-09-30T02:35:30;20.10;99.90
16728;DHT22;8482;54.396;18.590;2023-09-30T02:37:55;20.10;99.90
16728;DHT22;8482;54.396;18.590;2023-09-30T02:40:21;20.10;99.90
16728;DHT22;8482;54.396;18.590;2023-09-30T02:42:50;20.00;99.90
16728;DHT22;8482;54.396;18.590;2023-09-30T02:45:19;20.00;99.90
16728;DHT22;8482;54.396;18.590;2023-09-30T02:47:45;20.00;99.90
16728;DHT22;8482;54.396;18.590;2023-09-30T02:50:11;20.00;99.90
16728;DHT22;8482;54.396;18.590;2023-09-30T02:52:37;20.00;99.90
16728;DHT22;8482;54.396;18.590;2023-09-30T02:55:07;20.00;99.90
16728;DHT22;8482;54.396;18.590;2023-09-30T02:57:34;20.00;99.90
16728;DHT22;8482;54.396;18.590;2023-09-30T03:00:03;20.00;99.90
16728;DHT22;8482;54.396;18.590;2023-09-30T03:02:50;20.00;99.90
16728;DHT22;8482;54.396;18.590;2023-09-30T03:05:18;20.00;99.90
16728;DHT22;8482;54.396;18.590;2023-09-30T03:07:45;20.00;99.90
16728;DHT22;8482;54.396;18.590;2023-09-30T03:10:12;20.00;99.90
16728;DHT22;8482;54.396;18.590;2023-09-30T03:12:39;20.00;99.90
16728;DHT22;8482;54.396;18.590;2023-09-30T03:15:06;20.00;99.90
16728;DHT22;8482;54.396;18.590;2023-09-30T03:17:32;20.00;99.90
16728;DHT22;8482;54.396;18.590;2023-09-30T03:19:58;20.00;99.90
16728;DHT22;8482;54.396;18.590;2023-09-30T03:22:26;20.00;99.90
16728;DHT22;8482;54.396;18.590;2023-09-30T03:24:53;20.00;99.90
16728;DHT22;8482;54.396;18.590;2023-09-30T03:27:23;20.10;99.90
16728;DHT22;8482;54.396;18.590;2023-09-30T03:29:48;20.00;99.90
16728;DHT22;8482;54.396;18.590;2023-09-30T03:32:15;20.00;99.90
16728;DHT22;8482;54.396;18.590;2023-09-30T03:34:40;20.00;99.90
16728;DHT22;8482;54.396;18.590;2023-09-30T03:37:10;20.00;99.90
16728;DHT22;8482;54.396;18.590;2023-09-30T03:39:36;20.10;99.90
16728;DHT22;8482;54.396;18.590;2023-09-30T03:42:01;20.00;99.90
16728;DHT22;8482;54.396;18.590;2023-09-30T03:44:28;20.00;99.90
16728;DHT22;8482;54.396;18.590;2023-09-30T03:46:54;20.00;99.90
16728;DHT22;8482;54.396;18.590;2023-09-30T03:49:20;20.00;99.90
16728;DHT22;8482;54.396;18.590;2023-09-30T03:51:46;20.00;99.90
16728;DHT22;8482;54.396;18.590;2023-09-30T03:54:12;20.00;99.90
16728;DHT22;8482;54.396;18.590;2023-09-30T03:56:38;19.90;99.90
16728;DHT22;8482;54.396;18.590;2023-09-30T03:59:04;19.80;99.90
16728;DHT22;8482;54.396;18.590;2023-09-30T04:01:30;19.80;99.90
16728;DHT22;8482;54.396;18.590;2023-09-30T04:03:56;19.70;99.90
16728;DHT22;8482;54.396;18.590;2023-09-30T04:06:22;19.70;99.90
16728;DHT22;8482;54.396;18.590;2023-09-30T04:08:48;19.60;99.90
16728;DHT22;8482;54.396;18.590;2023-09-30T04:11:15;19.60;99.90
16728;DHT22;8482;54.396;18.590;2023-09-30T04:13:46;19.50;99.90
16728;DHT22;8482;54.396;18.590;2023-09-30T04:16:11;19.50;99.90
16728;DHT22;8482;54.396;18.590;2023-09-30T04:18:37;19.40;99.90
16728;DHT22;8482;54.396;18.590;2023-09-30T04:21:06;19.40;99.90
16728;DHT22;8482;54.396;18.590;2023-09-30T04:23:33;19.40;99.90
16728;DHT22;8482;54.396;18.590;2023-09-30T04:26:02;19.30;99.90
16728;DHT22;8482;54.396;18.590;2023-09-30T04:28:28;19.30;99.90
16728;DHT22;8482;54.396;18.590;2023-09-30T04:30:54;19.20;99.90
16728;DHT22;8482;54.396;18.590;2023-09-30T04:33:20;19.20;99.90
16728;DHT22;8482;54.396;18.590;2023-09-30T04:35:49;19.20;99.90
16728;DHT22;8482;54.396;18.590;2023-09-30T04:38:15;19.20;99.90
16728;DHT22;8482;54.396;18.590;2023-09-30T04:40:41;19.10;99.90
16728;DHT22;8482;54.396;18.590;2023-09-30T04:43:09;19.10;99.90
16728;DHT22;8482;54.396;18.590;2023-09-30T04:45:34;19.10;99.90
16728;DHT22;8482;54.396;18.590;2023-09-30T04:48:00;19.10;99.90
16728;DHT22;8482;54.396;18.590;2023-09-30T04:50:29;19.00;99.90
16728;DHT22;8482;54.396;18.590;2023-09-30T04:52:56;19.00;99.90
16728;DHT22;8482;54.396;18.590;2023-09-30T04:55:23;19.00;99.90
16728;DHT22;8482;54.396;18.590;2023-09-30T04:57:51;19.00;99.90
16728;DHT22;8482;54.396;18.590;2023-09-30T05:00:20;19.00;99.90
16728;DHT22;8482;54.396;18.590;2023-09-30T05:02:51;18.90;99.90
16728;DHT22;8482;54.396;18.590;2023-09-30T05:05:20;18.90;99.90
16728;DHT22;8482;54.396;18.590;2023-09-30T05:07:46;18.90;99.90
16728;DHT22;8482;54.396;18.590;2023-09-30T05:10:13;18.90;99.90
16728;DHT22;8482;54.396;18.590;2023-09-30T05:12:42;18.90;99.90
16728;DHT22;8482;54.396;18.590;2023-09-30T05:15:16;18.80;99.90
16728;DHT22;8482;54.396;18.590;2023-09-30T05:17:42;18.80;99.90
16728;DHT22;8482;54.396;18.590;2023-09-30T05:20:09;18.80;99.90
16728;DHT22;8482;54.396;18.590;2023-09-30T05:22:38;18.70;99.90
16728;DHT22;8482;54.396;18.590;2023-09-30T05:25:06;18.70;99.90
16728;DHT22;8482;54.396;18.590;2023-09-30T05:27:33;18.70;99.90
16728;DHT22;8482;54.396;18.590;2023-09-30T05:29:58;18.60;99.90
16728;DHT22;8482;54.396;18.590;2023-09-30T05:32:25;18.60;99.90
16728;DHT22;8482;54.396;18.590;2023-09-30T05:34:52;18.60;99.90
16728;DHT22;8482;54.396;18.590;2023-09-30T05:37:19;18.50;99.90
16728;DHT22;8482;54.396;18.590;2023-09-30T05:39:48;18.50;99.90
16728;DHT22;8482;54.396;18.590;2023-09-30T05:42:17;18.40;99.90
16728;DHT22;8482;54.396;18.590;2023-09-30T05:44:44;18.40;99.90
16728;DHT22;8482;54.396;18.590;2023-09-30T05:47:11;18.40;99.90
16728;DHT22;8482;54.396;18.590;2023-09-30T05:49:37;18.40;99.90
16728;DHT22;8482;54.396;18.590;2023-09-30T05:52:03;18.30;99.90
16728;DHT22;8482;54.396;18.590;2023-09-30T05:54:30;18.30;99.90
16728;DHT22;8482;54.396;18.590;2023-09-30T05:56:56;18.30;99.90
16728;DHT22;8482;54.396;18.590;2023-09-30T05:59:22;18.20;99.90
16728;DHT22;8482;54.396;18.590;2023-09-30T06:01:50;18.20;99.90
16728;DHT22;8482;54.396;18.590;2023-09-30T06:04:16;18.20;99.90
16728;DHT22;8482;54.396;18.590;2023-09-30T06:06:42;18.20;99.90
16728;DHT22;8482;54.396;18.590;2023-09-30T06:09:09;18.20;99.90
16728;DHT22;8482;54.396;18.590;2023-09-30T06:11:35;18.20;99.90
16728;DHT22;8482;54.396;18.590;2023-09-30T06:14:01;18.10;99.90
16728;DHT22;8482;54.396;18.590;2023-09-30T06:16:28;18.20;99.90
16728;DHT22;8482;54.396;18.590;2023-09-30T06:18:54;18.10;99.90
16728;DHT22;8482;54.396;18.590;2023-09-30T06:21:21;18.10;99.90
16728;DHT22;8482;54.396;18.590;2023-09-30T06:23:48;18.10;99.90
16728;DHT22;8482;54.396;18.590;2023-09-30T06:26:14;18.10;99.90
16728;DHT22;8482;54.396;18.590;2023-09-30T06:28:43;18.10;99.90
16728;DHT22;8482;54.396;18.590;2023-09-30T06:31:11;18.10;99.90
16728;DHT22;8482;54.396;18.590;2023-09-30T06:33:37;18.10;99.90
16728;DHT22;8482;54.396;18.590;2023-09-30T06:36:14;18.10;99.90
16728;DHT22;8482;54.396;18.590;2023-09-30T06:38:40;18.10;99.90
16728;DHT22;8482;54.396;18.590;2023-09-30T06:41:08;18.10;99.90
16728;DHT22;8482;54.396;18.590;2023-09-30T06:43:34;18.10;99.90
16728;DHT22;8482;54.396;18.590;2023-09-30T06:46:08;18.10;99.90
16728;DHT22;8482;54.396;18.590;2023-09-30T06:48:35;18.10;99.90
16728;DHT22;8482;54.396;18.590;2023-09-30T06:51:02;18.10;99.90
16728;DHT22;8482;54.396;18.590;2023-09-30T06:53:28;18.10;99.90
16728;DHT22;8482;54.396;18.590;2023-09-30T06:55:54;18.10;99.90
16728;DHT22;8482;54.396;18.590;2023-09-30T06:58:20;18.10;99.90
16728;DHT22;8482;54.396;18.590;2023-09-30T07:00:48;18.10;99.90
16728;DHT22;8482;54.396;18.590;2023-09-30T07:03:19;18.10;99.90
16728;DHT22;8482;54.396;18.590;2023-09-30T07:05:45;18.10;99.90
16728;DHT22;8482;54.396;18.590;2023-09-30T07:08:16;18.10;99.90
16728;DHT22;8482;54.396;18.590;2023-09-30T07:10:43;18.10;99.90
16728;DHT22;8482;54.396;18.590;2023-09-30T07:13:10;18.10;99.90
16728;DHT22;8482;54.396;18.590;2023-09-30T07:15:36;18.10;99.90
16728;DHT22;8482;54.396;18.590;2023-09-30T07:18:02;18.10;99.90
16728;DHT22;8482;54.396;18.590;2023-09-30T07:20:28;18.10;99.90
16728;DHT22;8482;54.396;18.590;2023-09-30T07:23:01;18.10;99.90
16728;DHT22;8482;54.396;18.590;2023-09-30T07:25:27;18.10;99.90
16728;DHT22;8482;54.396;18.590;2023-09-30T07:27:53;18.10;99.90
16728;DHT22;8482;54.396;18.590;2023-09-30T07:30:19;18.10;99.90
16728;DHT22;8482;54.396;18.590;2023-09-30T07:32:45;18.20;99.90
16728;DHT22;8482;54.396;18.590;2023-09-30T07:35:12;18.20;99.90
16728;DHT22;8482;54.396;18.590;2023-09-30T07:37:40;18.20;99.90
16728;DHT22;8482;54.396;18.590;2023-09-30T07:40:08;18.20;99.90
16728;DHT22;8482;54.396;18.590;2023-09-30T07:42:35;18.20;99.90
16728;DHT22;8482;54.396;18.590;2023-09-30T07:45:03;18.20;99.90
16728;DHT22;8482;54.396;18.590;2023-09-30T07:47:30;18.20;99.90
16728;DHT22;8482;54.396;18.590;2023-09-30T07:50:00;18.20;99.90
16728;DHT22;8482;54.396;18.590;2023-09-30T07:52:31;18.30;99.90
16728;DHT22;8482;54.396;18.590;2023-09-30T07:54:57;18.30;99.90
16728;DHT22;8482;54.396;18.590;2023-09-30T07:57:23;18.30;99.90
16728;DHT22;8482;54.396;18.590;2023-09-30T07:59:49;18.30;99.90
16728;DHT22;8482;54.396;18.590;2023-09-30T08:02:14;18.40;99.90
16728;DHT22;8482;54.396;18.590;2023-09-30T08:04:40;18.40;99.90
16728;DHT22;8482;54.396;18.590;2023-09-30T08:07:06;18.40;99.90
16728;DHT22;8482;54.396;18.590;2023-09-30T08:09:32;18.40;99.90
16728;DHT22;8482;54.396;18.590;2023-09-30T08:11:58;18.50;99.90
16728;DHT22;8482;54.396;18.590;2023-09-30T08:14:23;18.50;99.90
16728;DHT22;8482;54.396;18.590;2023-09-30T08:16:49;18.50;99.90
16728;DHT22;8482;54.396;18.590;2023-09-30T08:19:15;18.50;99.90
16728;DHT22;8482;54.396;18.590;2023-09-30T08:21:41;18.60;99.90
16728;DHT22;8482;54.396;18.590;2023-09-30T08:24:07;18.50;99.90
16728;DHT22;8482;54.396;18.590;2023-09-30T08:26:33;18.60;99.90
16728;DHT22;8482;54.396;18.590;2023-09-30T08:29:01;18.50;99.90
16728;DHT22;8482;54.396;18.590;2023-09-30T08:31:28;18.50;99.90
16728;DHT22;8482;54.396;18.590;2023-09-30T08:33:53;18.50;99.90
16728;DHT22;8482;54.396;18.590;2023-09-30T08:36:19;18.50;99.90
16728;DHT22;8482;54.396;18.590;2023-09-30T08:38:45;18.50;99.90
16728;DHT22;8482;54.396;18.590;2023-09-30T08:44:11;18.60;99.90
16728;DHT22;8482;54.396;18.590;2023-09-30T08:46:39;18.60;99.90
16728;DHT22;8482;54.396;18.590;2023-09-30T08:49:08;18.70;99.90
16728;DHT22;8482;54.396;18.590;2023-09-30T08:51:35;18.70;99.90
16728;DHT22;8482;54.396;18.590;2023-09-30T08:54:02;18.70;99.90
16728;DHT22;8482;54.396;18.590;2023-09-30T08:56:31;18.80;99.90
16728;DHT22;8482;54.396;18.590;2023-09-30T08:59:02;18.90;99.90
16728;DHT22;8482;54.396;18.590;2023-09-30T09:01:29;18.80;99.90
16728;DHT22;8482;54.396;18.590;2023-09-30T09:03:57;18.80;99.90
16728;DHT22;8482;54.396;18.590;2023-09-30T09:06:25;18.90;99.90
16728;DHT22;8482;54.396;18.590;2023-09-30T09:08:51;18.80;99.90
16728;DHT22;8482;54.396;18.590;2023-09-30T09:11:18;18.90;99.90
16728;DHT22;8482;54.396;18.590;2023-09-30T09:13:54;18.90;99.90
16728;DHT22;8482;54.396;18.590;2023-09-30T09:16:23;18.90;99.90
16728;DHT22;8482;54.396;18.590;2023-09-30T09:18:50;19.00;99.90
16728;DHT22;8482;54.396;18.590;2023-09-30T09:21:23;18.90;99.90
16728;DHT22;8482;54.396;18.590;2023-09-30T09:23:51;19.00;99.90
16728;DHT22;8482;54.396;18.590;2023-09-30T09:26:28;19.00;99.90
16728;DHT22;8482;54.396;18.590;2023-09-30T09:29:01;19.00;99.90
16728;DHT22;8482;54.396;18.590;2023-09-30T09:31:33;19.00;99.90
16728;DHT22;8482;54.396;18.590;2023-09-30T09:34:04;19.00;99.90
16728;DHT22;8482;54.396;18.590;2023-09-30T09:36:43;19.00;99.90
16728;DHT22;8482;54.396;18.590;2023-09-30T09:39:12;19.10;99.90
16728;DHT22;8482;54.396;18.590;2023-09-30T09:41:51;19.10;99.90
16728;DHT22;8482;54.396;18.590;2023-09-30T09:44:21;19.20;99.90
16728;DHT22;8482;54.396;18.590;2023-09-30T09:46:49;19.20;99.90
16728;DHT22;8482;54.396;18.590;2023-09-30T09:49:19;19.20;99.90
16728;DHT22;8482;54.396;18.590;2023-09-30T09:51:48;19.30;99.90
16728;DHT22;8482;54.396;18.590;2023-09-30T09:54:15;19.40;99.90
16728;DHT22;8482;54.396;18.590;2023-09-30T09:56:44;19.40;99.90
16728;DHT22;8482;54.396;18.590;2023-09-30T09:59:14;19.50;99.90
16728;DHT22;8482;54.396;18.590;2023-09-30T10:01:40;19.60;99.90
16728;DHT22;8482;54.396;18.590;2023-09-30T10:04:07;19.70;99.90
16728;DHT22;8482;54.396;18.590;2023-09-30T10:06:37;19.70;99.90
16728;DHT22;8482;54.396;18.590;2023-09-30T10:09:09;19.80;99.90
16728;DHT22;8482;54.396;18.590;2023-09-30T10:11:36;19.90;99.90
16728;DHT22;8482;54.396;18.590;2023-09-30T10:14:05;20.00;99.90
16728;DHT22;8482;54.396;18.590;2023-09-30T10:24:41;20.20;99.90
16728;DHT22;8482;54.396;18.590;2023-09-30T10:29:58;20.30;99.90
16728;DHT22;8482;54.396;18.590;2023-09-30T10:35:42;20.40;99.90
16728;DHT22;8482;54.396;18.590;2023-09-30T10:40:50;20.40;99.90
16728;DHT22;8482;54.396;18.590;2023-09-30T10:48:51;20.30;99.90
16728;DHT22;8482;54.396;18.590;2023-09-30T10:51:19;20.30;99.90
16728;DHT22;8482;54.396;18.590;2023-09-30T10:53:52;20.30;99.90
16728;DHT22;8482;54.396;18.590;2023-09-30T10:56:23;20.30;99.90
16728;DHT22;8482;54.396;18.590;2023-09-30T10:58:57;20.20;99.90
16728;DHT22;8482;54.396;18.590;2023-09-30T11:01:24;20.20;99.90
16728;DHT22;8482;54.396;18.590;2023-09-30T11:03:58;20.20;99.90
16728;DHT22;8482;54.396;18.590;2023-09-30T11:06:30;20.20;99.90
16728;DHT22;8482;54.396;18.590;2023-09-30T11:08:58;20.20;99.90
16728;DHT22;8482;54.396;18.590;2023-09-30T11:11:52;20.30;99.90
16728;DHT22;8482;54.396;18.590;2023-09-30T11:14:23;20.30;99.90
16728;DHT22;8482;54.396;18.590;2023-09-30T11:16:56;20.20;99.90
16728;DHT22;8482;54.396;18.590;2023-09-30T11:19:36;20.20;99.90
16728;DHT22;8482;54.396;18.590;2023-09-30T11:22:11;20.20;99.90
16728;DHT22;8482;54.396;18.590;2023-09-30T11:24:37;20.10;99.90
16728;DHT22;8482;54.396;18.590;2023-09-30T11:27:03;20.10;99.90
16728;DHT22;8482;54.396;18.590;2023-09-30T11:29:29;20.20;99.90
16728;DHT22;8482;54.396;18.590;2023-09-30T11:31:56;20.20;99.90
16728;DHT22;8482;54.396;18.590;2023-09-30T11:34:31;20.20;99.90
16728;DHT22;8482;54.396;18.590;2023-09-30T11:37:00;20.30;99.90
16728;DHT22;8482;54.396;18.590;2023-09-30T11:39:30;20.30;99.90
16728;DHT22;8482;54.396;18.590;2023-09-30T11:41:57;20.30;99.90
16728;DHT22;8482;54.396;18.590;2023-09-30T11:44:24;20.30;99.90
16728;DHT22;8482;54.396;18.590;2023-09-30T11:47:01;20.30;99.90
16728;DHT22;8482;54.396;18.590;2023-09-30T11:49:42;20.30;99.90
16728;DHT22;8482;54.396;18.590;2023-09-30T11:52:14;20.30;99.90
16728;DHT22;8482;54.396;18.590;2023-09-30T11:54:42;20.20;99.90
16728;DHT22;8482;54.396;18.590;2023-09-30T11:57:18;20.30;99.90
16728;DHT22;8482;54.396;18.590;2023-09-30T11:59:45;20.30;99.90
16728;DHT22;8482;54.396;18.590;2023-09-30T12:02:14;20.40;99.90
16728;DHT22;8482;54.396;18.590;2023-09-30T12:04:43;20.40;99.90
16728;DHT22;8482;54.396;18.590;2023-09-30T12:07:10;20.50;99.90
16728;DHT22;8482;54.396;18.590;2023-09-30T12:09:37;20.50;99.90
16728;DHT22;8482;54.396;18.590;2023-09-30T12:12:05;20.50;99.90
16728;DHT22;8482;54.396;18.590;2023-09-30T12:14:35;20.50;99.90
16728;DHT22;8482;54.396;18.590;2023-09-30T12:17:00;20.50;99.90
16728;DHT22;8482;54.396;18.590;2023-09-30T12:19:26;20.60;99.90
16728;DHT22;8482;54.396;18.590;2023-09-30T12:21:52;20.60;99.90
16728;DHT22;8482;54.396;18.590;2023-09-30T12:24:19;20.70;99.90
16728;DHT22;8482;54.396;18.590;2023-09-30T12:26:47;20.70;99.90
16728;DHT22;8482;54.396;18.590;2023-09-30T12:29:15;20.80;99.80
16728;DHT22;8482;54.396;18.590;2023-09-30T12:31:46;20.80;99.50
16728;DHT22;8482;54.396;18.590;2023-09-30T12:34:13;20.80;99.40
16728;DHT22;8482;54.396;18.590;2023-09-30T12:36:40;20.90;99.00
16728;DHT22;8482;54.396;18.590;2023-09-30T12:39:07;20.90;98.20
16728;DHT22;8482;54.396;18.590;2023-09-30T12:41:40;20.90;97.90
16728;DHT22;8482;54.396;18.590;2023-09-30T12:44:08;20.90;97.80
16728;DHT22;8482;54.396;18.590;2023-09-30T12:46:34;20.90;97.60
16728;DHT22;8482;54.396;18.590;2023-09-30T12:49:03;20.90;97.60
16728;DHT22;8482;54.396;18.590;2023-09-30T12:51:29;21.00;97.70
16728;DHT22;8482;54.396;18.590;2023-09-30T12:53:56;21.00;97.80
16728;DHT22;8482;54.396;18.590;2023-09-30T12:56:23;21.00;97.90
16728;DHT22;8482;54.396;18.590;2023-09-30T12:58:49;21.10;97.70
16728;DHT22;8482;54.396;18.590;2023-09-30T13:01:15;21.10;97.70
16728;DHT22;8482;54.396;18.590;2023-09-30T13:03:44;21.10;97.70
16728;DHT22;8482;54.396;18.590;2023-09-30T13:06:10;21.20;97.60
16728;DHT22;8482;54.396;18.590;2023-09-30T13:08:36;21.20;97.50
16728;DHT22;8482;54.396;18.590;2023-09-30T13:11:03;21.20;97.30
16728;DHT22;8482;54.396;18.590;2023-09-30T13:13:29;21.20;97.30
16728;DHT22;8482;54.396;18.590;2023-09-30T13:15:59;21.20;97.20
16728;DHT22;8482;54.396;18.590;2023-09-30T13:18:31;21.20;97.20
16728;DHT22;8482;54.396;18.590;2023-09-30T13:20:58;21.20;97.10
16728;DHT22;8482;54.396;18.590;2023-09-30T13:23:24;21.20;97.50
16728;DHT22;8482;54.396;18.590;2023-09-30T13:25:50;21.10;97.40
16728;DHT22;8482;54.396;18.590;2023-09-30T13:28:16;21.10;97.70
16728;DHT22;8482;54.396;18.590;2023-09-30T13:30:42;21.10;97.90
16728;DHT22;8482;54.396;18.590;2023-09-30T13:33:07;21.10;97.80
16728;DHT22;8482;54.396;18.590;2023-09-30T13:35:33;21.10;97.70
16728;DHT22;8482;54.396;18.590;2023-09-30T13:38:02;21.00;97.80
16728;DHT22;8482;54.396;18.590;2023-09-30T13:40:29;21.10;97.90
16728;DHT22;8482;54.396;18.590;2023-09-30T13:42:55;21.00;97.80
16728;DHT22;8482;54.396;18.590;2023-09-30T13:45:23;21.00;97.90
16728;DHT22;8482;54.396;18.590;2023-09-30T13:47:49;21.00;97.90
16728;DHT22;8482;54.396;18.590;2023-09-30T13:50:15;21.00;97.60
16728;DHT22;8482;54.396;18.590;2023-09-30T13:52:41;21.00;97.50
16728;DHT22;8482;54.396;18.590;2023-09-30T13:55:07;20.90;97.30
16728;DHT22;8482;54.396;18.590;2023-09-30T13:57:34;20.90;97.20
16728;DHT22;8482;54.396;18.590;2023-09-30T14:00:02;20.80;97.30
16728;DHT22;8482;54.396;18.590;2023-09-30T14:02:32;20.80;97.40
16728;DHT22;8482;54.396;18.590;2023-09-30T14:04:58;20.80;97.60
16728;DHT22;8482;54.396;18.590;2023-09-30T14:07:24;20.70;97.60
16728;DHT22;8482;54.396;18.590;2023-09-30T14:09:50;20.70;97.70
16728;DHT22;8482;54.396;18.590;2023-09-30T14:12:18;20.70;97.80
16728;DHT22;8482;54.396;18.590;2023-09-30T14:14:43;20.60;97.90
16728;DHT22;8482;54.396;18.590;2023-09-30T14:17:09;20.60;98.00
16728;DHT22;8482;54.396;18.590;2023-09-30T14:19:37;20.60;98.00
16728;DHT22;8482;54.396;18.590;2023-09-30T14:22:05;20.60;98.10
16728;DHT22;8482;54.396;18.590;2023-09-30T14:24:31;20.50;98.10
16728;DHT22;8482;54.396;18.590;2023-09-30T14:27:02;20.50;98.10
16728;DHT22;8482;54.396;18.590;2023-09-30T14:29:31;20.40;98.30
16728;DHT22;8482;54.396;18.590;2023-09-30T14:31:57;20.40;98.50
16728;DHT22;8482;54.396;18.590;2023-09-30T14:34:24;20.40;98.70
16728;DHT22;8482;54.396;18.590;2023-09-30T14:36:50;20.40;99.00
16728;DHT22;8482;54.396;18.590;2023-09-30T14:39:17;20.40;99.20
16728;DHT22;8482;54.396;18.590;2023-09-30T14:41:44;20.40;99.10
16728;DHT22;8482;54.396;18.590;2023-09-30T14:44:10;20.40;99.00
16728;DHT22;8482;54.396;18.590;2023-09-30T14:46:40;20.30;99.20
16728;DHT22;8482;54.396;18.590;2023-09-30T14:49:06;20.30;99.40
16728;DHT22;8482;54.396;18.590;2023-09-30T14:51:34;20.20;99.50
16728;DHT22;8482;54.396;18.590;2023-09-30T14:54:00;20.20;99.70
16728;DHT22;8482;54.396;18.590;2023-09-30T14:56:27;20.20;99.80
16728;DHT22;8482;54.396;18.590;2023-09-30T14:58:52;20.10;99.90
16728;DHT22;8482;54.396;18.590;2023-09-30T15:01:19;20.10;99.90
16728;DHT22;8482;54.396;18.590;2023-09-30T15:03:45;20.10;99.90
16728;DHT22;8482;54.396;18.590;2023-09-30T15:06:11;20.00;99.90
16728;DHT22;8482;54.396;18.590;2023-09-30T15:08:37;20.00;99.90
16728;DHT22;8482;54.396;18.590;2023-09-30T15:11:03;20.00;99.90
16728;DHT22;8482;54.396;18.590;2023-09-30T15:13:29;19.90;99.90
16728;DHT22;8482;54.396;18.590;2023-09-30T15:15:55;19.90;99.90
16728;DHT22;8482;54.396;18.590;2023-09-30T15:18:21;19.90;99.90
16728;DHT22;8482;54.396;18.590;2023-09-30T15:20:49;19.90;99.90
16728;DHT22;8482;54.396;18.590;2023-09-30T15:23:16;19.90;99.90
16728;DHT22;8482;54.396;18.590;2023-09-30T15:25:42;19.80;99.90
16728;DHT22;8482;54.396;18.590;2023-09-30T15:28:09;19.80;99.90
16728;DHT22;8482;54.396;18.590;2023-09-30T15:30:36;19.80;99.90
16728;DHT22;8482;54.396;18.590;2023-09-30T15:33:02;19.80;99.90
16728;DHT22;8482;54.396;18.590;2023-09-30T15:35:28;19.70;99.90
16728;DHT22;8482;54.396;18.590;2023-09-30T15:37:54;19.70;99.90
16728;DHT22;8482;54.396;18.590;2023-09-30T15:40:20;19.60;99.90
16728;DHT22;8482;54.396;18.590;2023-09-30T15:42:46;19.60;99.90
16728;DHT22;8482;54.396;18.590;2023-09-30T15:45:12;19.50;99.90
16728;DHT22;8482;54.396;18.590;2023-09-30T15:47:38;19.50;99.90
16728;DHT22;8482;54.396;18.590;2023-09-30T15:50:05;19.40;99.90
16728;DHT22;8482;54.396;18.590;2023-09-30T15:52:32;19.40;99.90
16728;DHT22;8482;54.396;18.590;2023-09-30T15:54:58;19.30;99.90
16728;DHT22;8482;54.396;18.590;2023-09-30T15:57:24;19.30;99.90